createdAt,value
2019-05-10T00:01:17.293Z,57.97
2019-05-10T00:04:07.695Z,64.63
2019-05-10T00:06:58.111Z,53.33
2019-05-10T00:09:29.991Z,47.83
2019-05-10T00:12:04.360Z,44.13
2019-05-10T00:14:50.771Z,45.10
2019-05-10T00:17:23.585Z,48.17
2019-05-10T00:19:56.595Z,46.97
2019-05-10T00:22:29.395Z,52.67
2019-05-10T00:25:04.836Z,51.90
2019-05-10T00:27:36.759Z,55.20
2019-05-10T00:30:09.995Z,48.47
2019-05-10T00:32:42.823Z,45.07
2019-05-10T00:35:15.803Z,51.23
2019-05-10T00:37:48.561Z,48.87
2019-05-10T00:40:21.314Z,41.97
2019-05-10T00:42:54.291Z,43.73
2019-05-10T00:45:26.975Z,50.73
2019-05-10T00:47:59.760Z,44.83
2019-05-10T00:50:32.625Z,43.07
2019-05-10T00:53:05.461Z,40.37
2019-05-10T00:55:38.475Z,37.97
2019-05-10T00:58:11.013Z,47.50
2019-05-10T01:00:43.880Z,52.40
2019-05-10T01:03:17.575Z,56.50
2019-05-10T01:05:50.380Z,68.13
2019-05-10T01:08:22.955Z,61.60
2019-05-10T01:10:57.485Z,70.17
2019-05-10T01:13:31.520Z,81.43
2019-05-10T01:16:05.985Z,50.17
2019-05-10T01:18:38.710Z,38.50
2019-05-10T01:21:11.582Z,29.10
2019-05-10T01:23:44.290Z,24.53
2019-05-10T01:26:18.445Z,24.33
2019-05-10T01:28:51.155Z,33.17
2019-05-10T01:31:24.020Z,30.63
2019-05-10T01:33:56.540Z,32.90
2019-05-10T01:36:30.715Z,39.00
2019-05-10T01:39:04.052Z,33.57
2019-05-10T01:41:38.033Z,27.47
2019-05-10T01:44:10.686Z,35.57
2019-05-10T01:46:43.230Z,30.50
2019-05-10T01:49:15.961Z,26.17
2019-05-10T01:51:48.710Z,28.80
2019-05-10T01:54:21.435Z,30.00
2019-05-10T01:56:54.114Z,28.43
2019-05-10T01:59:26.901Z,36.70
2019-05-10T02:01:59.785Z,28.63
2019-05-10T02:04:32.666Z,26.27
2019-05-10T02:07:05.390Z,29.90
2019-05-10T02:09:39.254Z,28.67
2019-05-10T02:12:11.998Z,34.83
2019-05-10T02:14:44.801Z,33.33
2019-05-10T02:17:17.575Z,36.10
2019-05-10T02:19:50.419Z,36.73
2019-05-10T02:22:23.620Z,32.43
2019-05-10T02:24:56.295Z,33.57
2019-05-10T02:27:29.280Z,34.97
2019-05-10T02:30:02.028Z,35.33
2019-05-10T02:32:34.991Z,38.93
2019-05-10T02:35:09.010Z,32.77
2019-05-10T02:37:41.697Z,34.93
2019-05-10T02:40:15.676Z,36.03
2019-05-10T02:42:48.482Z,41.57
2019-05-10T02:45:21.811Z,38.17
2019-05-10T02:47:54.372Z,39.00
2019-05-10T02:50:26.997Z,39.60
2019-05-10T02:52:59.857Z,41.83
2019-05-10T02:55:33.334Z,41.57
2019-05-10T02:58:06.175Z,39.50
2019-05-10T03:00:41.768Z,35.80
2019-05-10T03:03:16.666Z,36.73
2019-05-10T03:05:51.082Z,41.17
2019-05-10T03:08:25.524Z,39.93
2019-05-10T03:10:59.787Z,50.57
2019-05-10T03:13:33.031Z,51.47
2019-05-10T03:16:05.777Z,49.60
2019-05-10T03:18:40.871Z,53.57
2019-05-10T03:21:17.148Z,40.67
2019-05-10T03:23:51.180Z,36.33
2019-05-10T03:26:23.808Z,30.00
2019-05-10T03:28:56.665Z,30.77
2019-05-10T03:31:29.482Z,38.57
2019-05-10T03:34:02.311Z,42.43
2019-05-10T03:36:35.442Z,30.07
2019-05-10T03:39:08.711Z,32.80
2019-05-10T03:41:41.566Z,39.57
2019-05-10T03:44:14.301Z,38.73
2019-05-10T03:46:47.092Z,31.77
2019-05-10T03:49:19.687Z,39.87
2019-05-10T03:51:52.407Z,41.27
2019-05-10T03:54:26.358Z,52.97
2019-05-10T03:57:12.188Z,55.70
2019-05-10T03:59:34.477Z,38.73
2019-05-10T04:02:07.207Z,32.33
2019-05-10T04:04:39.715Z,35.90
2019-05-10T04:07:13.080Z,29.17
2019-05-10T04:09:45.774Z,32.03
2019-05-10T04:12:18.435Z,35.30
2019-05-10T04:14:51.235Z,37.67
2019-05-10T04:17:23.897Z,34.00
2019-05-10T04:19:56.676Z,33.97
2019-05-10T04:22:29.363Z,38.63
2019-05-10T04:25:02.157Z,35.37
2019-05-10T04:27:34.836Z,31.33
2019-05-10T04:30:09.205Z,37.97
2019-05-10T04:32:41.947Z,34.37
2019-05-10T04:35:15.000Z,37.33
2019-05-10T04:37:47.713Z,38.30
2019-05-10T04:40:20.438Z,48.30
2019-05-10T04:42:53.116Z,40.63
2019-05-10T04:45:25.697Z,30.87
2019-05-10T04:47:58.056Z,34.73
2019-05-10T04:50:30.882Z,46.03
2019-05-10T04:53:04.475Z,38.80
2019-05-10T04:55:38.036Z,51.07
2019-05-10T04:58:10.696Z,46.20
2019-05-10T05:00:43.551Z,50.53
2019-05-10T05:03:16.006Z,72.43
2019-05-10T05:05:48.652Z,51.80
2019-05-10T05:08:21.245Z,45.37
2019-05-10T05:10:54.045Z,37.77
2019-05-10T05:13:27.740Z,42.53
2019-05-10T05:16:00.611Z,35.20
2019-05-10T05:18:34.400Z,41.70
2019-05-10T05:21:07.281Z,35.13
2019-05-10T05:23:39.717Z,64.10
2019-05-10T05:26:12.326Z,41.73
2019-05-10T05:28:44.915Z,40.37
2019-05-10T05:31:17.960Z,30.57
2019-05-10T05:33:50.617Z,70.73
2019-05-10T05:36:23.415Z,34.90
2019-05-10T05:38:56.401Z,42.33
2019-05-10T05:41:31.799Z,39.90
2019-05-10T05:44:03.775Z,33.60
2019-05-10T05:46:36.331Z,34.77
2019-05-10T05:49:08.873Z,32.13
2019-05-10T05:51:41.721Z,39.37
2019-05-10T05:54:19.988Z,39.10
2019-05-10T05:56:50.669Z,41.33
2019-05-10T05:59:25.936Z,44.37
2019-05-10T06:02:00.656Z,35.47
2019-05-10T06:04:32.880Z,32.80
2019-05-10T06:07:06.235Z,40.77
2019-05-10T06:09:39.463Z,43.70
2019-05-10T06:12:13.040Z,50.03
2019-05-10T06:14:49.969Z,36.23
2019-05-10T06:17:23.781Z,38.40
2019-05-10T06:20:00.882Z,35.50
2019-05-10T06:22:30.875Z,35.67
2019-05-10T06:25:04.072Z,36.13
2019-05-10T06:27:41.292Z,32.97
2019-05-10T06:30:11.315Z,37.73
2019-05-10T06:32:43.801Z,40.23
2019-05-10T06:35:19.493Z,41.03
2019-05-10T06:37:51.239Z,30.97
2019-05-10T06:40:33.515Z,35.87
2019-05-10T06:42:58.517Z,36.83
2019-05-10T06:45:31.580Z,35.43
2019-05-10T06:48:04.340Z,38.20
2019-05-10T06:50:37.155Z,40.60
2019-05-10T06:53:10.994Z,35.73
2019-05-10T06:55:44.100Z,37.83
2019-05-10T06:58:16.766Z,43.80
2019-05-10T07:00:49.700Z,37.87
2019-05-10T07:03:22.682Z,33.27
2019-05-10T07:05:56.435Z,35.30
2019-05-10T07:08:43.323Z,38.10
2019-05-10T07:11:03.215Z,36.23
2019-05-10T07:13:40.549Z,35.07
2019-05-10T07:16:14.536Z,34.33
2019-05-10T07:18:45.485Z,39.20
2019-05-10T07:21:18.075Z,36.17
2019-05-10T07:23:50.345Z,30.83
2019-05-10T07:26:24.407Z,45.77
2019-05-10T07:28:59.278Z,34.63
2019-05-10T07:31:31.037Z,34.23
2019-05-10T07:34:03.641Z,57.90
2019-05-10T07:36:36.350Z,37.83
2019-05-10T07:39:10.781Z,42.10
2019-05-10T07:41:43.165Z,32.50
2019-05-10T07:44:15.771Z,31.40
2019-05-10T07:46:53.946Z,30.53
2019-05-10T07:49:23.773Z,28.93
2019-05-10T07:52:02.098Z,33.93
2019-05-10T07:54:30.417Z,30.10
2019-05-10T07:57:02.935Z,30.27
2019-05-10T07:59:49.480Z,27.97
2019-05-10T08:02:12.757Z,30.37
2019-05-10T08:04:43.795Z,31.97
2019-05-10T08:07:18.458Z,31.70
2019-05-10T08:09:51.025Z,33.97
2019-05-10T08:12:23.671Z,41.07
2019-05-10T08:14:56.350Z,30.40
2019-05-10T08:17:29.170Z,29.80
2019-05-10T08:20:02.915Z,31.73
2019-05-10T08:22:41.625Z,27.93
2019-05-10T08:25:12.273Z,34.90
2019-05-10T08:27:50.406Z,34.00
2019-05-10T08:30:29.000Z,29.23
2019-05-10T08:33:00.195Z,31.93
2019-05-10T08:35:33.654Z,32.60
2019-05-10T08:38:05.491Z,26.70
2019-05-10T08:40:38.238Z,32.13
2019-05-10T08:43:16.602Z,32.17
2019-05-10T08:45:49.759Z,30.73
2019-05-10T08:48:23.320Z,29.43
2019-05-10T08:50:57.685Z,32.17
2019-05-10T08:53:32.774Z,32.67
2019-05-10T08:56:07.797Z,27.45
2019-05-10T08:58:38.891Z,37.08
2019-05-10T09:01:23.960Z,33.50
2019-05-10T09:03:47.190Z,57.43
2019-05-10T09:06:21.869Z,32.17
2019-05-10T09:09:01.553Z,29.85
2019-05-10T09:11:27.917Z,25.88
2019-05-10T09:14:00.426Z,29.30
2019-05-10T09:16:39.391Z,25.02
2019-05-10T09:19:08.641Z,21.93
2019-05-10T09:21:49.147Z,21.25
2019-05-10T09:24:15.530Z,20.08
2019-05-10T09:26:52.752Z,26.20
2019-05-10T09:29:22.140Z,21.87
2019-05-10T09:31:54.593Z,22.45
2019-05-10T09:34:27.327Z,19.23
2019-05-10T09:36:59.755Z,19.62
2019-05-10T09:39:33.235Z,19.52
2019-05-10T09:42:09.269Z,18.57
2019-05-10T09:44:38.756Z,25.82
2019-05-10T09:47:12.396Z,29.30
2019-05-10T09:49:52.942Z,26.02
2019-05-10T09:52:18.906Z,20.82
2019-05-10T09:54:51.440Z,21.27
2019-05-10T09:57:23.841Z,26.52
2019-05-10T09:59:57.224Z,21.73
2019-05-10T10:02:33.833Z,28.77
2019-05-10T10:05:07.480Z,30.80
2019-05-10T10:07:39.551Z,19.30
2019-05-10T10:10:21.240Z,13.95
2019-05-10T10:12:49.291Z,17.32
2019-05-10T10:15:32.080Z,17.62
2019-05-10T10:17:58.136Z,16.12
2019-05-10T10:20:35.841Z,18.12
2019-05-10T10:23:07.394Z,21.45
2019-05-10T10:25:42.062Z,56.23
2019-05-10T10:28:19.931Z,251.07
2019-05-10T10:30:50.343Z,144.57
2019-05-10T10:33:28.075Z,132.75
2019-05-10T10:36:04.930Z,218.57
2019-05-10T10:38:31.428Z,144.50
2019-05-10T10:41:04.260Z,50.92
2019-05-10T10:43:37.214Z,42.58
2019-05-10T10:46:12.506Z,108.45
2019-05-10T10:48:49.266Z,79.30
2019-05-10T10:51:19.337Z,200.10
2019-05-10T10:53:54.590Z,55.95
2019-05-10T10:56:27.647Z,172.32
2019-05-10T10:59:00.590Z,87.10
2019-05-10T11:01:49.256Z,85.47
2019-05-10T11:04:08.334Z,26.42
2019-05-10T11:06:41.846Z,39.67
2019-05-10T11:09:14.845Z,31.02
2019-05-10T11:11:47.400Z,91.02
2019-05-10T11:14:20.598Z,69.70
2019-05-10T11:16:57.038Z,102.07
2019-05-10T11:19:27.380Z,99.90
2019-05-10T11:22:02.225Z,51.83
2019-05-10T11:24:35.126Z,38.65
2019-05-10T11:27:13.149Z,34.40
2019-05-10T11:29:42.680Z,33.67
2019-05-10T11:32:17.049Z,26.45
2019-05-10T11:34:50.758Z,23.45
2019-05-10T11:37:31.155Z,94.95
2019-05-10T11:39:57.716Z,20.23
2019-05-10T11:42:30.957Z,15.25
2019-05-10T11:45:04.121Z,37.05
2019-05-10T11:47:36.925Z,20.43
2019-05-10T11:50:10.637Z,13.78
2019-05-10T11:52:43.931Z,14.45
2019-05-10T11:55:16.752Z,24.92
2019-05-10T12:00:29.350Z,46.20
2019-05-10T12:03:08.814Z,9.30
2019-05-10T12:05:33.430Z,50.98
2019-05-10T12:08:06.349Z,73.35
2019-05-10T12:10:44.907Z,20.68
2019-05-10T12:13:19.531Z,14.23
2019-05-10T12:15:48.246Z,29.02
2019-05-10T12:18:26.517Z,15.93
2019-05-10T12:21:08.626Z,20.55
2019-05-10T12:23:31.610Z,15.70
2019-05-10T12:26:05.894Z,23.30
2019-05-10T12:28:40.797Z,46.30
2019-05-10T12:31:17.004Z,30.52
2019-05-10T12:33:50.591Z,33.13
2019-05-10T12:36:27.315Z,44.48
2019-05-10T12:38:58.999Z,48.40
2019-05-10T12:41:31.825Z,17.40
2019-05-10T12:44:07.390Z,17.57
2019-05-10T12:46:42.120Z,21.15
2019-05-10T12:49:13.530Z,15.20
2019-05-10T12:51:46.145Z,20.95
2019-05-10T12:54:23.967Z,22.77
2019-05-10T12:56:53.708Z,12.13
2019-05-10T12:59:29.696Z,34.27
2019-05-10T13:02:04.547Z,17.57
2019-05-10T13:04:40.613Z,19.32
2019-05-10T13:07:09.390Z,31.23
2019-05-10T13:09:42.371Z,37.63
2019-05-10T13:12:14.940Z,14.07
2019-05-10T13:14:52.540Z,15.00
2019-05-10T13:17:22.098Z,9.15
2019-05-10T13:19:58.418Z,8.55
2019-05-10T13:22:36.610Z,33.28
2019-05-10T13:25:04.881Z,29.75
2019-05-10T13:27:37.768Z,18.75
2019-05-10T13:30:11.645Z,24.70
2019-05-10T13:32:44.455Z,12.10
2019-05-10T13:35:17.641Z,16.73
2019-05-10T13:37:50.575Z,20.40
2019-05-10T13:40:23.341Z,34.20
2019-05-10T13:42:55.876Z,13.58
2019-05-10T13:45:31.844Z,20.52
2019-05-10T13:48:02.710Z,5.00
2019-05-10T13:50:35.662Z,11.97
2019-05-10T13:53:20.234Z,8.40
2019-05-10T13:55:42.797Z,21.37
2019-05-10T13:58:15.576Z,30.45
2019-05-10T14:00:48.256Z,19.35
2019-05-10T14:03:21.535Z,10.10
2019-05-10T14:05:55.356Z,20.82
2019-05-10T14:08:28.015Z,18.98
2019-05-10T14:11:01.881Z,12.78
2019-05-10T14:13:40.641Z,26.77
2019-05-10T14:16:18.381Z,38.85
2019-05-10T14:18:43.771Z,27.98
2019-05-10T14:21:16.423Z,38.63
2019-05-10T14:23:49.073Z,34.60
2019-05-10T14:26:22.002Z,42.67
2019-05-10T14:28:54.709Z,18.50
2019-05-10T14:31:27.845Z,16.23
2019-05-10T14:34:14.801Z,13.80
2019-05-10T14:36:40.830Z,17.75
2019-05-10T14:39:09.745Z,9.13
2019-05-10T14:41:45.249Z,12.37
2019-05-10T14:44:16.811Z,22.42
2019-05-10T14:46:49.671Z,16.12
2019-05-10T14:49:22.805Z,57.55
2019-05-10T14:51:59.667Z,74.75
2019-05-10T14:54:42.760Z,14.38
2019-05-10T14:57:04.240Z,14.45
2019-05-10T14:59:36.990Z,16.10
2019-05-10T15:02:09.757Z,33.55
2019-05-10T15:04:46.442Z,22.75
2019-05-10T15:07:17.980Z,19.62
2019-05-10T15:09:54.150Z,13.25
2019-05-10T15:12:24.901Z,11.40
2019-05-10T15:14:57.730Z,10.35
2019-05-10T15:17:30.635Z,6.42
2019-05-10T15:20:07.813Z,5.05
2019-05-10T15:22:40.371Z,7.42
2019-05-10T15:25:12.970Z,10.78
2019-05-10T15:27:45.685Z,24.98
2019-05-10T15:30:18.690Z,14.45
2019-05-10T15:32:51.070Z,11.43
2019-05-10T15:35:23.865Z,30.95
2019-05-10T15:37:56.661Z,20.48
2019-05-10T15:40:29.582Z,23.75
2019-05-10T15:43:03.350Z,14.55
2019-05-10T15:45:35.900Z,10.28
2019-05-10T15:48:08.780Z,6.35
2019-05-10T15:50:41.894Z,9.28
2019-05-10T15:53:19.615Z,9.30
2019-05-10T15:55:49.116Z,14.98
2019-05-10T15:58:22.009Z,7.75
2019-05-10T16:00:54.350Z,5.65
2019-05-10T16:03:27.226Z,3.65
2019-05-10T16:06:01.153Z,20.60
2019-05-10T16:08:34.045Z,6.12
2019-05-10T16:11:17.841Z,7.33
2019-05-10T16:13:40.911Z,9.03
2019-05-10T16:16:13.540Z,3.25
2019-05-10T16:18:46.295Z,3.70
2019-05-10T16:21:18.760Z,50.33
2019-05-10T16:23:51.696Z,80.55
2019-05-10T16:26:24.694Z,37.55
2019-05-10T16:29:01.978Z,36.65
2019-05-10T16:31:31.135Z,33.30
2019-05-10T16:34:04.285Z,27.52
2019-05-10T16:36:36.955Z,22.30
2019-05-10T16:39:09.875Z,34.95
2019-05-10T16:41:43.200Z,15.37
2019-05-10T16:44:16.275Z,10.38
2019-05-10T16:46:49.035Z,67.47
2019-05-10T16:49:21.731Z,97.63
2019-05-10T16:51:54.516Z,118.42
2019-05-10T16:54:27.479Z,170.07
2019-05-10T16:57:01.315Z,94.92
2019-05-10T16:59:35.323Z,65.08
2019-05-10T17:02:07.966Z,51.08
2019-05-10T17:04:40.502Z,35.98
2019-05-10T17:07:18.937Z,22.47
2019-05-10T17:09:49.469Z,17.27
2019-05-10T17:12:26.816Z,17.27
2019-05-10T17:14:59.762Z,26.20
2019-05-10T17:17:31.371Z,30.20
2019-05-10T17:20:07.526Z,13.60
2019-05-10T17:22:41.233Z,13.95
2019-05-10T17:25:14.095Z,12.00
2019-05-10T17:27:50.586Z,17.13
2019-05-10T17:30:27.583Z,20.00
2019-05-10T17:33:03.730Z,25.43
2019-05-10T17:35:36.638Z,35.23
2019-05-10T17:38:14.141Z,43.80
2019-05-10T17:40:47.957Z,32.40
2019-05-10T17:43:20.611Z,22.62
2019-05-10T17:45:52.960Z,19.17
2019-05-10T17:48:26.060Z,26.10
2019-05-10T17:50:59.910Z,27.47
2019-05-10T17:53:32.640Z,31.48
2019-05-10T17:56:05.660Z,21.13
2019-05-10T17:58:39.660Z,23.97
2019-05-10T18:01:13.795Z,19.60
2019-05-10T18:03:46.721Z,48.13
2019-05-10T18:06:24.110Z,58.40
2019-05-10T18:08:54.865Z,81.47
2019-05-10T18:11:27.764Z,78.40
2019-05-10T18:14:00.555Z,42.87
2019-05-10T18:16:33.070Z,45.43
2019-05-10T18:19:05.790Z,34.03
2019-05-10T18:21:38.175Z,24.50
2019-05-10T18:24:11.080Z,28.70
2019-05-10T18:26:44.131Z,24.03
2019-05-10T18:29:17.121Z,33.63
2019-05-10T18:31:55.861Z,41.80
2019-05-10T18:34:26.623Z,34.90
2019-05-10T18:36:59.021Z,35.23
2019-05-10T18:39:31.715Z,24.90
2019-05-10T18:42:04.395Z,25.27
2019-05-10T18:44:37.381Z,29.03
2019-05-10T18:47:10.046Z,35.27
2019-05-10T18:49:43.137Z,29.97
2019-05-10T18:52:16.236Z,32.80
2019-05-10T18:54:49.016Z,31.97
2019-05-10T18:57:21.826Z,20.50
2019-05-10T18:59:54.566Z,22.87
2019-05-10T19:02:27.185Z,20.97
2019-05-10T19:04:59.606Z,18.63
2019-05-10T19:07:32.360Z,34.40
2019-05-10T19:10:07.272Z,36.33
2019-05-10T19:12:40.356Z,32.10
2019-05-10T19:15:15.512Z,36.97
2019-05-10T19:17:48.510Z,42.80
2019-05-10T19:20:21.565Z,41.67
2019-05-10T19:22:54.171Z,43.40
2019-05-10T19:25:26.936Z,30.73
2019-05-10T19:27:59.870Z,28.93
2019-05-10T19:30:32.840Z,43.77
2019-05-10T19:33:05.600Z,42.33
2019-05-10T19:35:39.286Z,38.07
2019-05-10T19:38:12.130Z,36.20
2019-05-10T19:40:45.667Z,38.53
2019-05-10T19:43:21.539Z,27.70
2019-05-10T19:45:57.331Z,26.97
2019-05-10T19:48:29.417Z,40.77
2019-05-10T19:51:09.700Z,99.67
2019-05-10T19:53:42.417Z,109.53
2019-05-10T19:56:12.595Z,281.07
2019-05-10T19:58:45.228Z,251.90
2019-05-10T20:01:18.320Z,235.60
2019-05-10T20:03:51.251Z,582.50
2019-05-10T20:06:24.111Z,472.93
2019-05-10T20:08:56.967Z,504.37
2019-05-10T20:11:29.615Z,536.37
2019-05-10T20:14:02.816Z,332.80
2019-05-10T20:16:50.998Z,212.60
2019-05-10T20:19:10.042Z,93.00
2019-05-10T20:21:42.960Z,182.27
2019-05-10T20:24:17.165Z,71.30
2019-05-10T20:26:50.050Z,60.57
2019-05-10T20:29:22.755Z,43.47
2019-05-10T20:31:55.489Z,100.27
2019-05-10T20:34:28.126Z,66.63
2019-05-10T20:37:01.688Z,58.63
2019-05-10T20:39:34.440Z,50.40
2019-05-10T20:42:07.463Z,145.20
2019-05-10T20:44:40.285Z,212.33
2019-05-10T20:47:13.371Z,568.90
2019-05-10T20:49:45.941Z,448.40
2019-05-10T20:52:18.782Z,163.73
2019-05-10T20:54:52.631Z,216.33
2019-05-10T20:57:25.475Z,461.60
2019-05-10T20:59:58.297Z,269.00
2019-05-10T21:02:30.963Z,144.73
2019-05-10T21:05:03.780Z,245.17
2019-05-10T21:07:36.651Z,157.33
2019-05-10T21:10:09.760Z,148.57
2019-05-10T21:12:42.438Z,206.23
2019-05-10T21:15:15.677Z,132.40
2019-05-10T21:17:48.180Z,92.03
2019-05-10T21:20:20.894Z,154.07
2019-05-10T21:22:54.776Z,115.07
2019-05-10T21:25:27.481Z,163.57
2019-05-10T21:28:00.241Z,115.67
2019-05-10T21:30:33.030Z,140.53
2019-05-10T21:33:05.781Z,66.70
2019-05-10T21:35:38.478Z,75.10
2019-05-10T21:38:11.270Z,107.93
2019-05-10T21:40:44.315Z,222.90
2019-05-10T21:43:17.271Z,290.33
2019-05-10T21:45:50.061Z,191.13
2019-05-10T21:48:23.761Z,288.47
2019-05-10T21:50:56.665Z,392.27
2019-05-10T21:53:29.593Z,149.03
2019-05-10T21:56:02.525Z,326.43
2019-05-10T21:58:35.360Z,113.63
2019-05-10T22:01:08.272Z,316.63
2019-05-10T22:03:41.013Z,184.97
2019-05-10T22:06:13.605Z,188.07
2019-05-10T22:08:49.432Z,95.80
2019-05-10T22:11:20.920Z,86.90
2019-05-10T22:13:53.711Z,44.93
2019-05-10T22:16:26.283Z,56.20
2019-05-10T22:19:02.936Z,35.43
2019-05-10T22:21:35.560Z,37.40
2019-05-10T22:24:08.388Z,64.77
2019-05-10T22:26:41.012Z,65.77
2019-05-10T22:29:13.650Z,50.23
2019-05-10T22:31:46.245Z,56.40
2019-05-10T22:34:19.086Z,55.97
2019-05-10T22:36:51.685Z,58.93
2019-05-10T22:39:24.364Z,54.67
2019-05-10T22:41:57.501Z,29.87
2019-05-10T22:44:30.641Z,38.50
2019-05-10T22:47:03.360Z,40.33
2019-05-10T22:49:36.420Z,26.57
2019-05-10T22:52:09.220Z,26.03
2019-05-10T22:54:41.876Z,33.30
2019-05-10T22:57:14.343Z,34.17
2019-05-10T22:59:47.061Z,26.40
2019-05-10T23:02:20.037Z,26.53
2019-05-10T23:04:52.495Z,18.87
2019-05-10T23:07:25.246Z,16.17
2019-05-10T23:09:58.060Z,18.93
2019-05-10T23:12:31.175Z,20.17
2019-05-10T23:15:04.185Z,23.13
2019-05-10T23:17:37.295Z,45.50
2019-05-10T23:20:10.485Z,22.10
2019-05-10T23:22:42.856Z,15.37
2019-05-10T23:25:15.836Z,19.73
2019-05-10T23:27:48.558Z,16.13
2019-05-10T23:30:21.319Z,17.73
2019-05-10T23:32:54.128Z,25.93
2019-05-10T23:35:26.990Z,22.03
2019-05-10T23:37:59.782Z,18.90
2019-05-10T23:40:32.760Z,17.27
2019-05-10T23:43:05.570Z,15.00
2019-05-10T23:45:38.710Z,13.83
2019-05-10T23:48:11.427Z,13.67
2019-05-10T23:50:44.275Z,14.90
2019-05-10T23:53:16.985Z,17.20
2019-05-10T23:55:49.760Z,24.37
2019-05-10T23:58:22.720Z,27.17
